sensor_id;sensor_type;location;lat;lon;timestamp;P1;durP1;ratioP1;P2;durP2;ratioP2
18838;SDS011;9548;56.920;14.804;2022-08-19T00:01:20;15.60;;;12.57;;
18838;SDS011;9548;56.920;14.804;2022-08-19T00:03:48;17.23;;;13.70;;
18838;SDS011;9548;56.920;14.804;2022-08-19T00:06:15;15.55;;;11.82;;
18838;SDS011;9548;56.920;14.804;2022-08-19T00:08:42;16.73;;;12.57;;
18838;SDS011;9548;56.920;14.804;2022-08-19T00:11:10;17.48;;;11.85;;
18838;SDS011;9548;56.920;14.804;2022-08-19T00:13:38;15.27;;;12.02;;
18838;SDS011;9548;56.920;14.804;2022-08-19T00:16:05;18.85;;;12.68;;
18838;SDS011;9548;56.920;14.804;2022-08-19T00:18:34;20.38;;;12.02;;
18838;SDS011;9548;56.920;14.804;2022-08-19T00:21:01;15.15;;;13.48;;
18838;SDS011;9548;56.920;14.804;2022-08-19T00:23:31;14.65;;;12.75;;
18838;SDS011;9548;56.920;14.804;2022-08-19T00:25:59;15.07;;;12.13;;
18838;SDS011;9548;56.920;14.804;2022-08-19T00:28:27;16.88;;;12.73;;
18838;SDS011;9548;56.920;14.804;2022-08-19T00:30:53;13.15;;;11.68;;
18838;SDS011;9548;56.920;14.804;2022-08-19T00:33:20;18.27;;;12.25;;
18838;SDS011;9548;56.920;14.804;2022-08-19T00:35:49;15.93;;;11.35;;
18838;SDS011;9548;56.920;14.804;2022-08-19T00:38:16;16.27;;;11.98;;
18838;SDS011;9548;56.920;14.804;2022-08-19T00:40:47;16.40;;;11.38;;
18838;SDS011;9548;56.920;14.804;2022-08-19T00:43:18;14.88;;;12.60;;
18838;SDS011;9548;56.920;14.804;2022-08-19T00:45:47;18.42;;;13.40;;
18838;SDS011;9548;56.920;14.804;2022-08-19T00:48:15;17.05;;;12.73;;
18838;SDS011;9548;56.920;14.804;2022-08-19T00:50:43;16.85;;;12.07;;
18838;SDS011;9548;56.920;14.804;2022-08-19T00:53:13;15.88;;;12.50;;
18838;SDS011;9548;56.920;14.804;2022-08-19T00:55:44;14.80;;;13.20;;
18838;SDS011;9548;56.920;14.804;2022-08-19T00:58:13;17.15;;;13.05;;
18838;SDS011;9548;56.920;14.804;2022-08-19T01:00:42;16.38;;;14.35;;
18838;SDS011;9548;56.920;14.804;2022-08-19T01:03:11;19.33;;;15.40;;
18838;SDS011;9548;56.920;14.804;2022-08-19T01:05:42;23.35;;;15.50;;
18838;SDS011;9548;56.920;14.804;2022-08-19T01:08:11;17.25;;;14.95;;
18838;SDS011;9548;56.920;14.804;2022-08-19T01:10:41;20.63;;;15.65;;
18838;SDS011;9548;56.920;14.804;2022-08-19T01:13:11;21.10;;;15.20;;
18838;SDS011;9548;56.920;14.804;2022-08-19T01:15:41;22.52;;;15.00;;
18838;SDS011;9548;56.920;14.804;2022-08-19T01:18:11;19.77;;;16.10;;
18838;SDS011;9548;56.920;14.804;2022-08-19T01:20:40;20.02;;;16.10;;
18838;SDS011;9548;56.920;14.804;2022-08-19T01:23:10;21.45;;;16.10;;
18838;SDS011;9548;56.920;14.804;2022-08-19T01:25:39;18.77;;;15.35;;
18838;SDS011;9548;56.920;14.804;2022-08-19T01:28:14;23.70;;;16.45;;
18838;SDS011;9548;56.920;14.804;2022-08-19T01:30:43;23.58;;;16.48;;
18838;SDS011;9548;56.920;14.804;2022-08-19T01:33:11;21.83;;;15.98;;
18838;SDS011;9548;56.920;14.804;2022-08-19T01:35:39;24.45;;;16.20;;
18838;SDS011;9548;56.920;14.804;2022-08-19T01:38:08;20.42;;;16.88;;
18838;SDS011;9548;56.920;14.804;2022-08-19T01:40:46;24.33;;;17.05;;
18838;SDS011;9548;56.920;14.804;2022-08-19T01:43:13;22.63;;;16.88;;
18838;SDS011;9548;56.920;14.804;2022-08-19T01:45:40;22.75;;;16.98;;
18838;SDS011;9548;56.920;14.804;2022-08-19T01:48:08;23.23;;;16.58;;
18838;SDS011;9548;56.920;14.804;2022-08-19T01:50:35;22.10;;;16.73;;
18838;SDS011;9548;56.920;14.804;2022-08-19T01:53:04;25.88;;;16.60;;
18838;SDS011;9548;56.920;14.804;2022-08-19T01:55:35;18.58;;;16.20;;
18838;SDS011;9548;56.920;14.804;2022-08-19T01:58:04;25.35;;;15.68;;
18838;SDS011;9548;56.920;14.804;2022-08-19T02:00:34;23.83;;;16.10;;
18838;SDS011;9548;56.920;14.804;2022-08-19T02:03:01;25.90;;;15.98;;
18838;SDS011;9548;56.920;14.804;2022-08-19T02:05:28;23.73;;;15.02;;
18838;SDS011;9548;56.920;14.804;2022-08-19T02:07:55;21.27;;;16.30;;
18838;SDS011;9548;56.920;14.804;2022-08-19T02:10:22;17.98;;;15.55;;
18838;SDS011;9548;56.920;14.804;2022-08-19T02:12:51;23.10;;;15.60;;
18838;SDS011;9548;56.920;14.804;2022-08-19T02:15:18;22.70;;;15.93;;
18838;SDS011;9548;56.920;14.804;2022-08-19T02:17:47;21.67;;;15.82;;
18838;SDS011;9548;56.920;14.804;2022-08-19T02:20:14;21.27;;;15.18;;
18838;SDS011;9548;56.920;14.804;2022-08-19T02:22:41;22.10;;;16.10;;
18838;SDS011;9548;56.920;14.804;2022-08-19T02:25:09;20.73;;;14.57;;
18838;SDS011;9548;56.920;14.804;2022-08-19T02:27:37;21.10;;;15.35;;
18838;SDS011;9548;56.920;14.804;2022-08-19T02:30:06;19.75;;;15.70;;
18838;SDS011;9548;56.920;14.804;2022-08-19T02:32:35;23.38;;;15.90;;
18838;SDS011;9548;56.920;14.804;2022-08-19T02:35:02;25.17;;;15.48;;
18838;SDS011;9548;56.920;14.804;2022-08-19T02:37:30;20.40;;;15.02;;
18838;SDS011;9548;56.920;14.804;2022-08-19T02:40:14;20.20;;;14.68;;
18838;SDS011;9548;56.920;14.804;2022-08-19T02:42:42;21.58;;;14.77;;
18838;SDS011;9548;56.920;14.804;2022-08-19T02:45:12;19.95;;;14.90;;
18838;SDS011;9548;56.920;14.804;2022-08-19T02:47:39;23.55;;;14.63;;
18838;SDS011;9548;56.920;14.804;2022-08-19T02:50:06;22.13;;;13.93;;
18838;SDS011;9548;56.920;14.804;2022-08-19T02:52:34;21.70;;;12.55;;
18838;SDS011;9548;56.920;14.804;2022-08-19T02:55:01;22.90;;;14.00;;
18838;SDS011;9548;56.920;14.804;2022-08-19T02:57:29;19.52;;;13.52;;
18838;SDS011;9548;56.920;14.804;2022-08-19T02:59:58;16.52;;;12.55;;
18838;SDS011;9548;56.920;14.804;2022-08-19T03:02:26;16.25;;;12.63;;
18838;SDS011;9548;56.920;14.804;2022-08-19T03:04:54;21.05;;;13.27;;
18838;SDS011;9548;56.920;14.804;2022-08-19T03:07:21;17.15;;;12.25;;
18838;SDS011;9548;56.920;14.804;2022-08-19T03:09:48;15.32;;;12.43;;
18838;SDS011;9548;56.920;14.804;2022-08-19T03:12:15;17.52;;;12.52;;
18838;SDS011;9548;56.920;14.804;2022-08-19T03:14:42;16.92;;;12.73;;
18838;SDS011;9548;56.920;14.804;2022-08-19T03:17:09;15.10;;;12.90;;
18838;SDS011;9548;56.920;14.804;2022-08-19T03:19:38;18.73;;;12.32;;
18838;SDS011;9548;56.920;14.804;2022-08-19T03:22:05;22.20;;;12.45;;
18838;SDS011;9548;56.920;14.804;2022-08-19T03:24:32;18.45;;;11.70;;
18838;SDS011;9548;56.920;14.804;2022-08-19T03:27:00;16.00;;;12.82;;
18838;SDS011;9548;56.920;14.804;2022-08-19T03:29:30;15.20;;;11.85;;
18838;SDS011;9548;56.920;14.804;2022-08-19T03:31:57;18.67;;;12.07;;
18838;SDS011;9548;56.920;14.804;2022-08-19T03:34:27;15.25;;;11.38;;
18838;SDS011;9548;56.920;14.804;2022-08-19T03:36:57;15.23;;;12.05;;
18838;SDS011;9548;56.920;14.804;2022-08-19T03:39:26;19.23;;;11.65;;
18838;SDS011;9548;56.920;14.804;2022-08-19T03:41:54;15.75;;;11.40;;
18838;SDS011;9548;56.920;14.804;2022-08-19T03:44:23;20.35;;;12.55;;
18838;SDS011;9548;56.920;14.804;2022-08-19T03:46:53;19.27;;;11.82;;
18838;SDS011;9548;56.920;14.804;2022-08-19T03:49:22;16.48;;;11.57;;
18838;SDS011;9548;56.920;14.804;2022-08-19T03:51:50;17.17;;;11.68;;
18838;SDS011;9548;56.920;14.804;2022-08-19T03:54:19;15.93;;;12.43;;
18838;SDS011;9548;56.920;14.804;2022-08-19T03:56:49;19.58;;;11.85;;
18838;SDS011;9548;56.920;14.804;2022-08-19T03:59:19;17.10;;;11.20;;
18838;SDS011;9548;56.920;14.804;2022-08-19T04:01:48;15.00;;;11.57;;
18838;SDS011;9548;56.920;14.804;2022-08-19T04:04:15;16.15;;;12.13;;
18838;SDS011;9548;56.920;14.804;2022-08-19T04:06:42;13.70;;;11.10;;
18838;SDS011;9548;56.920;14.804;2022-08-19T04:09:12;14.50;;;11.38;;
18838;SDS011;9548;56.920;14.804;2022-08-19T04:11:41;15.15;;;10.48;;
18838;SDS011;9548;56.920;14.804;2022-08-19T04:14:10;14.07;;;10.60;;
18838;SDS011;9548;56.920;14.804;2022-08-19T04:16:39;17.02;;;10.50;;
18838;SDS011;9548;56.920;14.804;2022-08-19T04:19:06;14.50;;;10.70;;
18838;SDS011;9548;56.920;14.804;2022-08-19T04:21:33;14.07;;;11.27;;
18838;SDS011;9548;56.920;14.804;2022-08-19T04:24:00;20.05;;;10.98;;
18838;SDS011;9548;56.920;14.804;2022-08-19T04:26:28;14.10;;;10.65;;
18838;SDS011;9548;56.920;14.804;2022-08-19T04:29:00;12.98;;;10.13;;
18838;SDS011;9548;56.920;14.804;2022-08-19T04:31:30;13.77;;;10.65;;
18838;SDS011;9548;56.920;14.804;2022-08-19T04:34:01;14.38;;;10.45;;
18838;SDS011;9548;56.920;14.804;2022-08-19T04:36:31;14.25;;;10.07;;
18838;SDS011;9548;56.920;14.804;2022-08-19T04:39:00;13.45;;;9.68;;
18838;SDS011;9548;56.920;14.804;2022-08-19T04:41:29;12.93;;;10.65;;
18838;SDS011;9548;56.920;14.804;2022-08-19T04:44:15;15.20;;;10.55;;
18838;SDS011;9548;56.920;14.804;2022-08-19T04:46:43;15.00;;;10.38;;
18838;SDS011;9548;56.920;14.804;2022-08-19T04:49:10;16.75;;;10.40;;
18838;SDS011;9548;56.920;14.804;2022-08-19T04:51:39;13.70;;;10.13;;
18838;SDS011;9548;56.920;14.804;2022-08-19T04:54:07;15.32;;;10.02;;
18838;SDS011;9548;56.920;14.804;2022-08-19T04:56:34;13.50;;;10.20;;
18838;SDS011;9548;56.920;14.804;2022-08-19T04:59:02;16.65;;;10.15;;
18838;SDS011;9548;56.920;14.804;2022-08-19T05:01:31;11.68;;;9.70;;
18838;SDS011;9548;56.920;14.804;2022-08-19T05:04:01;15.90;;;9.60;;
18838;SDS011;9548;56.920;14.804;2022-08-19T05:06:30;11.38;;;8.63;;
18838;SDS011;9548;56.920;14.804;2022-08-19T05:08:59;12.20;;;8.82;;
18838;SDS011;9548;56.920;14.804;2022-08-19T05:11:27;12.98;;;8.63;;
18838;SDS011;9548;56.920;14.804;2022-08-19T05:13:55;11.43;;;8.70;;
18838;SDS011;9548;56.920;14.804;2022-08-19T05:16:23;9.82;;;8.60;;
18838;SDS011;9548;56.920;14.804;2022-08-19T05:18:52;10.15;;;8.23;;
18838;SDS011;9548;56.920;14.804;2022-08-19T05:21:38;14.05;;;8.38;;
18838;SDS011;9548;56.920;14.804;2022-08-19T05:24:23;13.85;;;8.57;;
18838;SDS011;9548;56.920;14.804;2022-08-19T05:26:51;11.82;;;8.40;;
18838;SDS011;9548;56.920;14.804;2022-08-19T05:29:22;12.13;;;8.48;;
18838;SDS011;9548;56.920;14.804;2022-08-19T05:31:50;10.77;;;7.72;;
18838;SDS011;9548;56.920;14.804;2022-08-19T05:34:20;13.82;;;7.88;;
18838;SDS011;9548;56.920;14.804;2022-08-19T05:36:50;13.90;;;7.68;;
18838;SDS011;9548;56.920;14.804;2022-08-19T05:39:22;11.35;;;7.85;;
18838;SDS011;9548;56.920;14.804;2022-08-19T05:41:51;13.73;;;7.85;;
18838;SDS011;9548;56.920;14.804;2022-08-19T05:44:22;15.35;;;7.53;;
18838;SDS011;9548;56.920;14.804;2022-08-19T05:46:49;11.32;;;7.65;;
18838;SDS011;9548;56.920;14.804;2022-08-19T05:49:20;15.40;;;8.10;;
18838;SDS011;9548;56.920;14.804;2022-08-19T05:51:48;9.50;;;6.93;;
18838;SDS011;9548;56.920;14.804;2022-08-19T05:54:15;12.38;;;7.25;;
18838;SDS011;9548;56.920;14.804;2022-08-19T05:56:43;12.68;;;6.90;;
18838;SDS011;9548;56.920;14.804;2022-08-19T05:59:13;10.98;;;7.20;;
18838;SDS011;9548;56.920;14.804;2022-08-19T06:01:42;13.90;;;7.30;;
18838;SDS011;9548;56.920;14.804;2022-08-19T06:04:11;13.82;;;6.65;;
18838;SDS011;9548;56.920;14.804;2022-08-19T06:06:40;11.80;;;7.22;;
18838;SDS011;9548;56.920;14.804;2022-08-19T06:09:07;8.68;;;6.90;;
18838;SDS011;9548;56.920;14.804;2022-08-19T06:11:36;16.90;;;6.78;;
18838;SDS011;9548;56.920;14.804;2022-08-19T06:14:05;11.45;;;7.18;;
18838;SDS011;9548;56.920;14.804;2022-08-19T06:16:34;14.60;;;7.15;;
18838;SDS011;9548;56.920;14.804;2022-08-19T06:19:04;14.15;;;7.13;;
18838;SDS011;9548;56.920;14.804;2022-08-19T06:21:33;7.60;;;6.25;;
18838;SDS011;9548;56.920;14.804;2022-08-19T06:24:04;10.30;;;6.63;;
18838;SDS011;9548;56.920;14.804;2022-08-19T06:26:33;11.32;;;7.13;;
18838;SDS011;9548;56.920;14.804;2022-08-19T06:29:00;11.27;;;6.40;;
18838;SDS011;9548;56.920;14.804;2022-08-19T06:31:28;13.13;;;6.80;;
18838;SDS011;9548;56.920;14.804;2022-08-19T06:33:58;10.00;;;6.78;;
18838;SDS011;9548;56.920;14.804;2022-08-19T06:36:27;10.60;;;6.40;;
18838;SDS011;9548;56.920;14.804;2022-08-19T06:38:58;10.30;;;6.65;;
18838;SDS011;9548;56.920;14.804;2022-08-19T06:41:27;9.65;;;6.88;;
18838;SDS011;9548;56.920;14.804;2022-08-19T06:43:55;10.05;;;6.78;;
18838;SDS011;9548;56.920;14.804;2022-08-19T06:46:22;9.13;;;6.93;;
18838;SDS011;9548;56.920;14.804;2022-08-19T06:48:49;7.70;;;6.30;;
18838;SDS011;9548;56.920;14.804;2022-08-19T06:51:19;10.90;;;6.85;;
18838;SDS011;9548;56.920;14.804;2022-08-19T06:53:49;10.88;;;6.30;;
18838;SDS011;9548;56.920;14.804;2022-08-19T06:56:18;9.30;;;6.70;;
18838;SDS011;9548;56.920;14.804;2022-08-19T06:58:48;10.30;;;6.97;;
18838;SDS011;9548;56.920;14.804;2022-08-19T07:01:17;8.43;;;6.82;;
18838;SDS011;9548;56.920;14.804;2022-08-19T07:03:44;16.42;;;6.50;;
18838;SDS011;9548;56.920;14.804;2022-08-19T07:06:13;11.65;;;7.00;;
18838;SDS011;9548;56.920;14.804;2022-08-19T07:08:42;10.93;;;6.47;;
18838;SDS011;9548;56.920;14.804;2022-08-19T07:11:11;13.18;;;6.95;;
18838;SDS011;9548;56.920;14.804;2022-08-19T07:13:39;14.80;;;7.50;;
18838;SDS011;9548;56.920;14.804;2022-08-19T07:16:10;9.98;;;6.40;;
18838;SDS011;9548;56.920;14.804;2022-08-19T07:18:40;10.15;;;6.30;;
18838;SDS011;9548;56.920;14.804;2022-08-19T07:21:08;9.48;;;6.45;;
18838;SDS011;9548;56.920;14.804;2022-08-19T07:23:37;15.60;;;6.90;;
18838;SDS011;9548;56.920;14.804;2022-08-19T07:26:05;11.00;;;6.55;;
18838;SDS011;9548;56.920;14.804;2022-08-19T07:28:33;12.57;;;6.80;;
18838;SDS011;9548;56.920;14.804;2022-08-19T07:31:05;10.40;;;6.25;;
18838;SDS011;9548;56.920;14.804;2022-08-19T07:33:34;10.15;;;6.65;;
18838;SDS011;9548;56.920;14.804;2022-08-19T07:36:02;11.93;;;6.90;;
18838;SDS011;9548;56.920;14.804;2022-08-19T07:38:32;13.43;;;7.00;;
18838;SDS011;9548;56.920;14.804;2022-08-19T07:40:59;8.85;;;6.47;;
18838;SDS011;9548;56.920;14.804;2022-08-19T07:43:27;16.30;;;6.68;;
18838;SDS011;9548;56.920;14.804;2022-08-19T07:45:54;10.98;;;6.50;;
18838;SDS011;9548;56.920;14.804;2022-08-19T07:48:22;7.47;;;6.30;;
18838;SDS011;9548;56.920;14.804;2022-08-19T07:50:51;9.73;;;6.05;;
18838;SDS011;9548;56.920;14.804;2022-08-19T07:53:19;10.75;;;5.90;;
18838;SDS011;9548;56.920;14.804;2022-08-19T07:55:47;10.00;;;5.85;;
18838;SDS011;9548;56.920;14.804;2022-08-19T07:58:14;11.50;;;5.45;;
18838;SDS011;9548;56.920;14.804;2022-08-19T08:00:45;8.52;;;6.30;;
18838;SDS011;9548;56.920;14.804;2022-08-19T08:03:13;8.82;;;5.78;;
18838;SDS011;9548;56.920;14.804;2022-08-19T08:05:42;10.77;;;6.15;;
18838;SDS011;9548;56.920;14.804;2022-08-19T08:08:28;7.13;;;5.40;;
18838;SDS011;9548;56.920;14.804;2022-08-19T08:11:14;10.68;;;6.07;;
18838;SDS011;9548;56.920;14.804;2022-08-19T08:13:42;14.07;;;5.38;;
18838;SDS011;9548;56.920;14.804;2022-08-19T08:16:09;10.13;;;6.18;;
18838;SDS011;9548;56.920;14.804;2022-08-19T08:18:36;8.55;;;5.95;;
18838;SDS011;9548;56.920;14.804;2022-08-19T08:21:07;7.45;;;5.45;;
18838;SDS011;9548;56.920;14.804;2022-08-19T08:23:36;7.47;;;5.70;;
18838;SDS011;9548;56.920;14.804;2022-08-19T08:26:03;11.55;;;5.78;;
18838;SDS011;9548;56.920;14.804;2022-08-19T08:28:30;10.95;;;6.40;;
18838;SDS011;9548;56.920;14.804;2022-08-19T08:30:57;7.35;;;5.00;;
18838;SDS011;9548;56.920;14.804;2022-08-19T08:33:25;7.07;;;5.40;;
18838;SDS011;9548;56.920;14.804;2022-08-19T08:35:55;8.30;;;5.95;;
18838;SDS011;9548;56.920;14.804;2022-08-19T08:38:22;7.85;;;5.43;;
18838;SDS011;9548;56.920;14.804;2022-08-19T08:40:52;6.43;;;5.28;;
18838;SDS011;9548;56.920;14.804;2022-08-19T08:43:27;8.07;;;5.22;;
18838;SDS011;9548;56.920;14.804;2022-08-19T08:45:59;6.95;;;5.20;;
18838;SDS011;9548;56.920;14.804;2022-08-19T08:48:32;6.18;;;4.78;;
18838;SDS011;9548;56.920;14.804;2022-08-19T08:51:04;5.65;;;4.93;;
18838;SDS011;9548;56.920;14.804;2022-08-19T08:53:35;4.88;;;4.38;;
18838;SDS011;9548;56.920;14.804;2022-08-19T08:56:05;9.40;;;4.55;;
18838;SDS011;9548;56.920;14.804;2022-08-19T08:58:40;7.93;;;4.97;;
18838;SDS011;9548;56.920;14.804;2022-08-19T09:01:15;7.03;;;4.80;;
18838;SDS011;9548;56.920;14.804;2022-08-19T09:03:42;10.65;;;5.20;;
18838;SDS011;9548;56.920;14.804;2022-08-19T09:06:12;6.50;;;5.60;;
18838;SDS011;9548;56.920;14.804;2022-08-19T09:08:48;7.50;;;5.10;;
18838;SDS011;9548;56.920;14.804;2022-08-19T09:11:25;6.72;;;4.80;;
18838;SDS011;9548;56.920;14.804;2022-08-19T09:14:07;5.90;;;5.07;;
18838;SDS011;9548;56.920;14.804;2022-08-19T09:16:40;5.53;;;4.97;;
18838;SDS011;9548;56.920;14.804;2022-08-19T09:19:07;6.57;;;5.13;;
18838;SDS011;9548;56.920;14.804;2022-08-19T09:21:35;14.63;;;5.72;;
18838;SDS011;9548;56.920;14.804;2022-08-19T09:24:03;8.63;;;5.38;;
18838;SDS011;9548;56.920;14.804;2022-08-19T09:26:33;10.32;;;5.03;;
18838;SDS011;9548;56.920;14.804;2022-08-19T09:29:00;8.98;;;5.30;;
18838;SDS011;9548;56.920;14.804;2022-08-19T09:31:30;8.93;;;5.40;;
18838;SDS011;9548;56.920;14.804;2022-08-19T09:33:58;13.32;;;5.93;;
18838;SDS011;9548;56.920;14.804;2022-08-19T09:36:27;15.95;;;5.70;;
18838;SDS011;9548;56.920;14.804;2022-08-19T09:38:57;10.93;;;5.68;;
18838;SDS011;9548;56.920;14.804;2022-08-19T09:41:26;7.63;;;5.97;;
18838;SDS011;9548;56.920;14.804;2022-08-19T09:43:55;9.70;;;5.40;;
18838;SDS011;9548;56.920;14.804;2022-08-19T09:46:24;8.88;;;5.78;;
18838;SDS011;9548;56.920;14.804;2022-08-19T09:48:59;7.43;;;5.80;;
18838;SDS011;9548;56.920;14.804;2022-08-19T09:51:26;8.82;;;5.90;;
18838;SDS011;9548;56.920;14.804;2022-08-19T09:53:55;8.40;;;6.03;;
18838;SDS011;9548;56.920;14.804;2022-08-19T09:56:26;13.18;;;6.00;;
18838;SDS011;9548;56.920;14.804;2022-08-19T09:58:55;9.10;;;6.10;;
18838;SDS011;9548;56.920;14.804;2022-08-19T10:01:26;9.50;;;6.55;;
18838;SDS011;9548;56.920;14.804;2022-08-19T10:03:56;11.20;;;6.63;;
18838;SDS011;9548;56.920;14.804;2022-08-19T10:06:26;11.68;;;6.90;;
18838;SDS011;9548;56.920;14.804;2022-08-19T10:08:57;8.52;;;6.70;;
18838;SDS011;9548;56.920;14.804;2022-08-19T10:11:24;8.60;;;6.40;;
18838;SDS011;9548;56.920;14.804;2022-08-19T10:13:53;9.65;;;6.40;;
18838;SDS011;9548;56.920;14.804;2022-08-19T10:16:22;10.38;;;6.40;;
18838;SDS011;9548;56.920;14.804;2022-08-19T10:18:50;7.97;;;7.18;;
18838;SDS011;9548;56.920;14.804;2022-08-19T10:21:19;9.88;;;6.90;;
18838;SDS011;9548;56.920;14.804;2022-08-19T10:23:49;10.30;;;6.82;;
18838;SDS011;9548;56.920;14.804;2022-08-19T10:26:20;8.65;;;7.10;;
18838;SDS011;9548;56.920;14.804;2022-08-19T10:28:49;8.88;;;6.97;;
18838;SDS011;9548;56.920;14.804;2022-08-19T10:31:18;7.85;;;7.05;;
18838;SDS011;9548;56.920;14.804;2022-08-19T10:33:47;8.98;;;7.40;;
18838;SDS011;9548;56.920;14.804;2022-08-19T10:36:15;13.27;;;7.35;;
18838;SDS011;9548;56.920;14.804;2022-08-19T10:38:43;7.63;;;6.32;;
18838;SDS011;9548;56.920;14.804;2022-08-19T10:41:12;21.08;;;6.80;;
18838;SDS011;9548;56.920;14.804;2022-08-19T10:43:41;13.23;;;6.70;;
18838;SDS011;9548;56.920;14.804;2022-08-19T10:46:11;7.30;;;6.45;;
18838;SDS011;9548;56.920;14.804;2022-08-19T10:48:41;12.32;;;7.47;;
18838;SDS011;9548;56.920;14.804;2022-08-19T10:51:09;9.45;;;7.18;;
18838;SDS011;9548;56.920;14.804;2022-08-19T10:53:55;12.38;;;6.60;;
18838;SDS011;9548;56.920;14.804;2022-08-19T10:56:23;12.38;;;7.28;;
18838;SDS011;9548;56.920;14.804;2022-08-19T10:59:08;12.82;;;7.22;;
18838;SDS011;9548;56.920;14.804;2022-08-19T11:01:36;11.50;;;7.13;;
18838;SDS011;9548;56.920;14.804;2022-08-19T11:04:04;15.23;;;7.50;;
18838;SDS011;9548;56.920;14.804;2022-08-19T11:06:34;12.52;;;7.85;;
18838;SDS011;9548;56.920;14.804;2022-08-19T11:09:01;13.65;;;7.78;;
18838;SDS011;9548;56.920;14.804;2022-08-19T11:11:28;11.95;;;7.13;;
18838;SDS011;9548;56.920;14.804;2022-08-19T11:13:56;12.30;;;7.20;;
18838;SDS011;9548;56.920;14.804;2022-08-19T11:16:24;12.32;;;7.47;;
18838;SDS011;9548;56.920;14.804;2022-08-19T11:18:56;12.38;;;7.40;;
18838;SDS011;9548;56.920;14.804;2022-08-19T11:21:26;16.02;;;7.25;;
18838;SDS011;9548;56.920;14.804;2022-08-19T11:23:57;15.27;;;7.50;;
18838;SDS011;9548;56.920;14.804;2022-08-19T11:26:27;8.48;;;7.30;;
18838;SDS011;9548;56.920;14.804;2022-08-19T11:28:55;16.67;;;8.10;;
18838;SDS011;9548;56.920;14.804;2022-08-19T11:31:25;17.33;;;7.53;;
18838;SDS011;9548;56.920;14.804;2022-08-19T11:33:53;13.35;;;7.45;;
18838;SDS011;9548;56.920;14.804;2022-08-19T11:36:22;21.15;;;7.78;;
18838;SDS011;9548;56.920;14.804;2022-08-19T11:38:50;12.02;;;7.25;;
18838;SDS011;9548;56.920;14.804;2022-08-19T11:41:19;11.40;;;7.75;;
18838;SDS011;9548;56.920;14.804;2022-08-19T11:43:47;11.77;;;7.50;;
18838;SDS011;9548;56.920;14.804;2022-08-19T11:46:15;12.50;;;7.55;;
18838;SDS011;9548;56.920;14.804;2022-08-19T11:48:43;12.40;;;7.80;;
18838;SDS011;9548;56.920;14.804;2022-08-19T11:51:11;17.67;;;7.78;;
18838;SDS011;9548;56.920;14.804;2022-08-19T11:53:39;14.90;;;8.65;;
18838;SDS011;9548;56.920;14.804;2022-08-19T11:56:08;22.08;;;7.65;;
18838;SDS011;9548;56.920;14.804;2022-08-19T11:58:36;10.23;;;8.05;;
18838;SDS011;9548;56.920;14.804;2022-08-19T12:01:04;9.25;;;7.60;;
18838;SDS011;9548;56.920;14.804;2022-08-19T12:03:33;10.10;;;6.85;;
18838;SDS011;9548;56.920;14.804;2022-08-19T12:06:02;9.00;;;7.20;;
18838;SDS011;9548;56.920;14.804;2022-08-19T12:08:31;11.65;;;7.75;;
18838;SDS011;9548;56.920;14.804;2022-08-19T12:10:58;14.35;;;7.47;;
18838;SDS011;9548;56.920;14.804;2022-08-19T12:13:28;14.63;;;8.00;;
18838;SDS011;9548;56.920;14.804;2022-08-19T12:15:56;8.07;;;7.28;;
18838;SDS011;9548;56.920;14.804;2022-08-19T12:18:24;15.88;;;7.90;;
18838;SDS011;9548;56.920;14.804;2022-08-19T12:20:52;9.10;;;6.97;;
18838;SDS011;9548;56.920;14.804;2022-08-19T12:23:21;16.50;;;7.72;;
18838;SDS011;9548;56.920;14.804;2022-08-19T12:25:48;15.68;;;7.50;;
18838;SDS011;9548;56.920;14.804;2022-08-19T12:28:16;11.05;;;7.57;;
18838;SDS011;9548;56.920;14.804;2022-08-19T12:30:45;9.73;;;7.38;;
18838;SDS011;9548;56.920;14.804;2022-08-19T12:33:13;11.90;;;7.53;;
18838;SDS011;9548;56.920;14.804;2022-08-19T12:35:40;10.57;;;7.57;;
18838;SDS011;9548;56.920;14.804;2022-08-19T12:38:11;11.63;;;7.10;;
18838;SDS011;9548;56.920;14.804;2022-08-19T12:40:39;8.18;;;7.03;;
18838;SDS011;9548;56.920;14.804;2022-08-19T12:43:07;19.38;;;7.22;;
18838;SDS011;9548;56.920;14.804;2022-08-19T12:45:34;10.80;;;6.95;;
18838;SDS011;9548;56.920;14.804;2022-08-19T12:48:04;15.60;;;7.00;;
18838;SDS011;9548;56.920;14.804;2022-08-19T12:50:31;11.02;;;6.88;;
18838;SDS011;9548;56.920;14.804;2022-08-19T12:52:58;12.73;;;7.00;;
18838;SDS011;9548;56.920;14.804;2022-08-19T12:55:25;10.65;;;7.18;;
18838;SDS011;9548;56.920;14.804;2022-08-19T12:57:53;8.02;;;7.10;;
18838;SDS011;9548;56.920;14.804;2022-08-19T13:00:20;14.57;;;7.18;;
18838;SDS011;9548;56.920;14.804;2022-08-19T13:02:48;11.18;;;7.28;;
18838;SDS011;9548;56.920;14.804;2022-08-19T13:05:19;9.23;;;6.57;;
18838;SDS011;9548;56.920;14.804;2022-08-19T13:07:48;9.50;;;6.25;;
18838;SDS011;9548;56.920;14.804;2022-08-19T13:10:17;12.00;;;6.72;;
18838;SDS011;9548;56.920;14.804;2022-08-19T13:12:46;11.85;;;6.32;;
18838;SDS011;9548;56.920;14.804;2022-08-19T13:15:15;9.25;;;6.65;;
18838;SDS011;9548;56.920;14.804;2022-08-19T13:17:44;10.63;;;6.05;;
18838;SDS011;9548;56.920;14.804;2022-08-19T13:20:14;8.73;;;7.15;;
18838;SDS011;9548;56.920;14.804;2022-08-19T13:22:44;11.75;;;6.85;;
18838;SDS011;9548;56.920;14.804;2022-08-19T13:25:11;13.50;;;6.70;;
18838;SDS011;9548;56.920;14.804;2022-08-19T13:27:41;8.90;;;6.68;;
18838;SDS011;9548;56.920;14.804;2022-08-19T13:30:09;9.88;;;6.32;;
18838;SDS011;9548;56.920;14.804;2022-08-19T13:32:56;9.60;;;6.55;;
18838;SDS011;9548;56.920;14.804;2022-08-19T13:35:40;9.45;;;6.43;;
18838;SDS011;9548;56.920;14.804;2022-08-19T13:38:11;8.70;;;6.50;;
18838;SDS011;9548;56.920;14.804;2022-08-19T13:40:39;9.75;;;6.80;;
18838;SDS011;9548;56.920;14.804;2022-08-19T13:43:06;8.07;;;6.53;;
18838;SDS011;9548;56.920;14.804;2022-08-19T13:45:35;10.52;;;6.47;;
18838;SDS011;9548;56.920;14.804;2022-08-19T13:48:03;10.43;;;6.60;;
18838;SDS011;9548;56.920;14.804;2022-08-19T13:50:34;7.80;;;6.55;;
18838;SDS011;9548;56.920;14.804;2022-08-19T13:53:05;6.82;;;5.85;;
18838;SDS011;9548;56.920;14.804;2022-08-19T13:55:34;9.80;;;6.15;;
18838;SDS011;9548;56.920;14.804;2022-08-19T13:58:03;10.50;;;6.13;;
18838;SDS011;9548;56.920;14.804;2022-08-19T14:00:31;10.77;;;6.13;;
18838;SDS011;9548;56.920;14.804;2022-08-19T14:02:59;9.95;;;6.28;;
18838;SDS011;9548;56.920;14.804;2022-08-19T14:05:27;8.80;;;6.30;;
18838;SDS011;9548;56.920;14.804;2022-08-19T14:07:55;7.97;;;6.15;;
18838;SDS011;9548;56.920;14.804;2022-08-19T14:10:23;9.80;;;5.90;;
18838;SDS011;9548;56.920;14.804;2022-08-19T14:12:53;7.93;;;6.15;;
18838;SDS011;9548;56.920;14.804;2022-08-19T14:15:23;8.68;;;6.40;;
18838;SDS011;9548;56.920;14.804;2022-08-19T14:17:50;7.15;;;6.25;;
18838;SDS011;9548;56.920;14.804;2022-08-19T14:20:17;7.28;;;6.47;;
18838;SDS011;9548;56.920;14.804;2022-08-19T14:22:46;6.32;;;5.72;;
18838;SDS011;9548;56.920;14.804;2022-08-19T14:25:17;9.77;;;6.38;;
18838;SDS011;9548;56.920;14.804;2022-08-19T14:27:46;7.35;;;6.40;;
18838;SDS011;9548;56.920;14.804;2022-08-19T14:30:16;7.97;;;6.28;;
18838;SDS011;9548;56.920;14.804;2022-08-19T14:32:45;7.57;;;6.78;;
18838;SDS011;9548;56.920;14.804;2022-08-19T14:35:13;8.75;;;6.47;;
18838;SDS011;9548;56.920;14.804;2022-08-19T14:37:41;7.35;;;6.55;;
18838;SDS011;9548;56.920;14.804;2022-08-19T14:40:10;21.55;;;8.40;;
18838;SDS011;9548;56.920;14.804;2022-08-19T14:42:37;10.20;;;7.03;;
18838;SDS011;9548;56.920;14.804;2022-08-19T14:45:05;10.10;;;7.72;;